sensor_id;sensor_type;location;lat;lon;timestamp;temperature;humidity
61092;DHT22;46975;51.898;11.444;2023-02-11T00:01:32;4.10;99.90
61092;DHT22;46975;51.898;11.444;2023-02-11T00:03:58;4.10;99.90
61092;DHT22;46975;51.898;11.444;2023-02-11T00:06:25;4.10;99.90
61092;DHT22;46975;51.898;11.444;2023-02-11T00:08:52;4.00;99.90
61092;DHT22;46975;51.898;11.444;2023-02-11T00:11:19;4.10;99.90
61092;DHT22;46975;51.898;11.444;2023-02-11T00:13:45;4.20;99.90
61092;DHT22;46975;51.898;11.444;2023-02-11T00:16:14;4.10;99.90
61092;DHT22;46975;51.898;11.444;2023-02-11T00:18:40;4.20;99.90
61092;DHT22;46975;51.898;11.444;2023-02-11T00:21:17;4.30;99.90
61092;DHT22;46975;51.898;11.444;2023-02-11T00:23:44;4.40;99.90
61092;DHT22;46975;51.898;11.444;2023-02-11T00:26:14;4.50;99.90
61092;DHT22;46975;51.898;11.444;2023-02-11T00:28:40;4.60;99.90
61092;DHT22;46975;51.898;11.444;2023-02-11T00:31:06;4.60;99.90
61092;DHT22;46975;51.898;11.444;2023-02-11T00:33:32;4.70;99.90
61092;DHT22;46975;51.898;11.444;2023-02-11T00:35:57;4.80;99.90
61092;DHT22;46975;51.898;11.444;2023-02-11T00:38:23;4.70;99.90
61092;DHT22;46975;51.898;11.444;2023-02-11T00:40:48;4.80;99.90
61092;DHT22;46975;51.898;11.444;2023-02-11T00:43:14;4.80;99.90
61092;DHT22;46975;51.898;11.444;2023-02-11T00:45:40;4.90;99.90
61092;DHT22;46975;51.898;11.444;2023-02-11T00:48:05;4.80;99.90
61092;DHT22;46975;51.898;11.444;2023-02-11T00:50:31;4.80;99.90
61092;DHT22;46975;51.898;11.444;2023-02-11T00:52:56;4.80;99.90
61092;DHT22;46975;51.898;11.444;2023-02-11T00:55:23;4.90;99.90
61092;DHT22;46975;51.898;11.444;2023-02-11T00:57:48;4.90;99.90
61092;DHT22;46975;51.898;11.444;2023-02-11T01:00:14;4.90;99.90
61092;DHT22;46975;51.898;11.444;2023-02-11T01:02:40;4.90;99.90
61092;DHT22;46975;51.898;11.444;2023-02-11T01:05:06;5.00;99.90
61092;DHT22;46975;51.898;11.444;2023-02-11T01:07:32;5.00;99.90
61092;DHT22;46975;51.898;11.444;2023-02-11T01:09:57;5.10;99.90
61092;DHT22;46975;51.898;11.444;2023-02-11T01:12:23;5.00;99.90
61092;DHT22;46975;51.898;11.444;2023-02-11T01:14:49;5.00;99.90
61092;DHT22;46975;51.898;11.444;2023-02-11T01:17:15;4.90;99.90
61092;DHT22;46975;51.898;11.444;2023-02-11T01:19:41;5.00;99.90
61092;DHT22;46975;51.898;11.444;2023-02-11T01:22:07;5.00;99.90
61092;DHT22;46975;51.898;11.444;2023-02-11T01:24:32;5.00;99.90
61092;DHT22;46975;51.898;11.444;2023-02-11T01:26:58;5.00;99.90
61092;DHT22;46975;51.898;11.444;2023-02-11T01:29:23;5.00;99.90
61092;DHT22;46975;51.898;11.444;2023-02-11T01:31:49;5.00;99.90
61092;DHT22;46975;51.898;11.444;2023-02-11T01:34:15;5.00;99.90
61092;DHT22;46975;51.898;11.444;2023-02-11T01:36:41;5.00;99.90
61092;DHT22;46975;51.898;11.444;2023-02-11T01:39:06;5.00;99.90
61092;DHT22;46975;51.898;11.444;2023-02-11T01:41:33;5.00;99.90
61092;DHT22;46975;51.898;11.444;2023-02-11T01:46:47;4.90;99.90
61092;DHT22;46975;51.898;11.444;2023-02-11T01:49:18;4.90;99.90
61092;DHT22;46975;51.898;11.444;2023-02-11T01:51:46;4.90;99.90
61092;DHT22;46975;51.898;11.444;2023-02-11T01:54:16;4.90;99.90
61092;DHT22;46975;51.898;11.444;2023-02-11T01:57:02;5.00;99.90
61092;DHT22;46975;51.898;11.444;2023-02-11T02:00:12;5.20;99.90
61092;DHT22;46975;51.898;11.444;2023-02-11T02:08:16;5.60;99.90
61092;DHT22;46975;51.898;11.444;2023-02-11T02:10:46;5.70;99.90
61092;DHT22;46975;51.898;11.444;2023-02-11T02:13:13;5.60;99.90
61092;DHT22;46975;51.898;11.444;2023-02-11T02:15:43;5.70;99.90
61092;DHT22;46975;51.898;11.444;2023-02-11T02:20:50;5.70;99.90
61092;DHT22;46975;51.898;11.444;2023-02-11T02:23:30;5.80;99.90
61092;DHT22;46975;51.898;11.444;2023-02-11T02:29:17;5.80;99.90
61092;DHT22;46975;51.898;11.444;2023-02-11T02:37:37;5.70;99.90
61092;DHT22;46975;51.898;11.444;2023-02-11T02:40:10;5.80;99.90
61092;DHT22;46975;51.898;11.444;2023-02-11T02:42:38;5.70;99.90
61092;DHT22;46975;51.898;11.444;2023-02-11T02:45:07;5.70;99.90
61092;DHT22;46975;51.898;11.444;2023-02-11T02:47:33;5.60;99.90
61092;DHT22;46975;51.898;11.444;2023-02-11T02:49:59;5.60;99.90
61092;DHT22;46975;51.898;11.444;2023-02-11T02:57:50;5.50;99.90
61092;DHT22;46975;51.898;11.444;2023-02-11T03:00:27;5.50;99.90
61092;DHT22;46975;51.898;11.444;2023-02-11T03:03:18;5.50;99.90
61092;DHT22;46975;51.898;11.444;2023-02-11T03:05:55;5.50;99.90
61092;DHT22;46975;51.898;11.444;2023-02-11T03:08:33;5.50;99.90
61092;DHT22;46975;51.898;11.444;2023-02-11T03:11:00;5.50;99.90
61092;DHT22;46975;51.898;11.444;2023-02-11T03:13:30;5.60;99.90
61092;DHT22;46975;51.898;11.444;2023-02-11T03:16:07;5.70;99.90
61092;DHT22;46975;51.898;11.444;2023-02-11T03:18:34;5.60;99.90
61092;DHT22;46975;51.898;11.444;2023-02-11T03:21:01;5.60;99.90
61092;DHT22;46975;51.898;11.444;2023-02-11T03:23:40;5.70;99.90
61092;DHT22;46975;51.898;11.444;2023-02-11T03:29:13;5.70;99.90
61092;DHT22;46975;51.898;11.444;2023-02-11T03:34:52;5.70;99.90
61092;DHT22;46975;51.898;11.444;2023-02-11T03:40:07;5.70;99.90
61092;DHT22;46975;51.898;11.444;2023-02-11T03:42:48;5.70;99.90
61092;DHT22;46975;51.898;11.444;2023-02-11T03:45:17;5.70;99.90
61092;DHT22;46975;51.898;11.444;2023-02-11T03:47:49;5.70;99.90
61092;DHT22;46975;51.898;11.444;2023-02-11T03:50:17;5.70;99.90
61092;DHT22;46975;51.898;11.444;2023-02-11T03:52:44;5.70;99.90
61092;DHT22;46975;51.898;11.444;2023-02-11T03:55:16;5.70;99.90
61092;DHT22;46975;51.898;11.444;2023-02-11T03:57:43;5.60;99.90
61092;DHT22;46975;51.898;11.444;2023-02-11T04:00:09;5.60;99.90
61092;DHT22;46975;51.898;11.444;2023-02-11T04:02:37;5.60;99.90
61092;DHT22;46975;51.898;11.444;2023-02-11T04:05:04;5.60;99.90
61092;DHT22;46975;51.898;11.444;2023-02-11T04:07:31;5.60;99.90
61092;DHT22;46975;51.898;11.444;2023-02-11T04:09:56;5.60;99.90
61092;DHT22;46975;51.898;11.444;2023-02-11T04:12:22;5.60;99.90
61092;DHT22;46975;51.898;11.444;2023-02-11T04:14:48;5.70;99.90
61092;DHT22;46975;51.898;11.444;2023-02-11T04:17:13;5.60;99.90
61092;DHT22;46975;51.898;11.444;2023-02-11T04:19:39;5.60;99.90
61092;DHT22;46975;51.898;11.444;2023-02-11T04:22:05;5.70;99.90
61092;DHT22;46975;51.898;11.444;2023-02-11T04:24:31;5.70;99.90
61092;DHT22;46975;51.898;11.444;2023-02-11T04:26:56;5.80;99.90
61092;DHT22;46975;51.898;11.444;2023-02-11T04:29:22;5.90;99.90
61092;DHT22;46975;51.898;11.444;2023-02-11T04:31:48;5.90;99.90
61092;DHT22;46975;51.898;11.444;2023-02-11T04:34:14;5.80;99.90
61092;DHT22;46975;51.898;11.444;2023-02-11T04:36:40;5.80;99.90
61092;DHT22;46975;51.898;11.444;2023-02-11T04:39:06;5.70;99.90
61092;DHT22;46975;51.898;11.444;2023-02-11T04:41:31;5.80;99.90
61092;DHT22;46975;51.898;11.444;2023-02-11T04:43:57;5.70;99.90
61092;DHT22;46975;51.898;11.444;2023-02-11T04:46:23;5.80;99.90
61092;DHT22;46975;51.898;11.444;2023-02-11T04:48:48;5.80;99.90
61092;DHT22;46975;51.898;11.444;2023-02-11T04:51:14;5.80;99.90
61092;DHT22;46975;51.898;11.444;2023-02-11T04:53:40;5.80;99.90
61092;DHT22;46975;51.898;11.444;2023-02-11T04:56:06;5.80;99.90
61092;DHT22;46975;51.898;11.444;2023-02-11T04:58:32;5.90;99.90
61092;DHT22;46975;51.898;11.444;2023-02-11T05:01:06;5.80;99.90
61092;DHT22;46975;51.898;11.444;2023-02-11T05:03:32;5.90;99.90
61092;DHT22;46975;51.898;11.444;2023-02-11T05:05:57;5.90;99.90
61092;DHT22;46975;51.898;11.444;2023-02-11T05:08:23;5.80;99.90
61092;DHT22;46975;51.898;11.444;2023-02-11T05:10:49;5.80;99.90
61092;DHT22;46975;51.898;11.444;2023-02-11T05:13:15;5.90;99.90
61092;DHT22;46975;51.898;11.444;2023-02-11T05:15:41;5.90;99.90
61092;DHT22;46975;51.898;11.444;2023-02-11T05:18:06;5.90;99.90
61092;DHT22;46975;51.898;11.444;2023-02-11T05:20:33;5.90;99.90
61092;DHT22;46975;51.898;11.444;2023-02-11T05:22:58;5.90;99.90
61092;DHT22;46975;51.898;11.444;2023-02-11T05:25:24;5.90;99.90
61092;DHT22;46975;51.898;11.444;2023-02-11T05:27:50;5.90;99.90
61092;DHT22;46975;51.898;11.444;2023-02-11T05:30:15;5.80;99.90
61092;DHT22;46975;51.898;11.444;2023-02-11T05:32:41;5.90;99.90
61092;DHT22;46975;51.898;11.444;2023-02-11T05:35:07;5.90;99.90
61092;DHT22;46975;51.898;11.444;2023-02-11T05:37:34;5.90;99.90
61092;DHT22;46975;51.898;11.444;2023-02-11T05:39:59;5.90;99.90
61092;DHT22;46975;51.898;11.444;2023-02-11T05:42:25;5.90;99.90
61092;DHT22;46975;51.898;11.444;2023-02-11T05:44:50;5.90;99.90
61092;DHT22;46975;51.898;11.444;2023-02-11T05:47:16;5.90;99.90
61092;DHT22;46975;51.898;11.444;2023-02-11T05:49:42;5.90;99.90
61092;DHT22;46975;51.898;11.444;2023-02-11T05:52:07;6.00;99.90
61092;DHT22;46975;51.898;11.444;2023-02-11T05:54:33;6.00;99.90
61092;DHT22;46975;51.898;11.444;2023-02-11T05:56:58;6.00;99.90
61092;DHT22;46975;51.898;11.444;2023-02-11T05:59:24;6.00;99.90
61092;DHT22;46975;51.898;11.444;2023-02-11T06:01:50;6.00;99.90
61092;DHT22;46975;51.898;11.444;2023-02-11T06:04:16;6.10;99.90
61092;DHT22;46975;51.898;11.444;2023-02-11T06:06:41;6.10;99.90
61092;DHT22;46975;51.898;11.444;2023-02-11T06:09:08;6.10;99.90
61092;DHT22;46975;51.898;11.444;2023-02-11T06:11:34;6.20;99.90
61092;DHT22;46975;51.898;11.444;2023-02-11T06:14:00;6.10;99.90
61092;DHT22;46975;51.898;11.444;2023-02-11T06:16:25;6.10;99.90
61092;DHT22;46975;51.898;11.444;2023-02-11T06:18:51;6.10;99.90
61092;DHT22;46975;51.898;11.444;2023-02-11T06:21:17;6.20;99.90
61092;DHT22;46975;51.898;11.444;2023-02-11T06:23:42;6.20;99.90
61092;DHT22;46975;51.898;11.444;2023-02-11T06:26:18;6.20;99.90
61092;DHT22;46975;51.898;11.444;2023-02-11T06:28:44;6.20;99.90
61092;DHT22;46975;51.898;11.444;2023-02-11T06:31:10;6.20;99.90
61092;DHT22;46975;51.898;11.444;2023-02-11T06:33:37;6.20;99.90
61092;DHT22;46975;51.898;11.444;2023-02-11T06:36:04;6.20;99.90
61092;DHT22;46975;51.898;11.444;2023-02-11T06:38:30;6.20;99.90
61092;DHT22;46975;51.898;11.444;2023-02-11T06:40:55;6.20;99.90
61092;DHT22;46975;51.898;11.444;2023-02-11T06:43:21;6.20;99.90
61092;DHT22;46975;51.898;11.444;2023-02-11T06:45:53;6.30;99.90
61092;DHT22;46975;51.898;11.444;2023-02-11T06:48:19;6.20;99.90
61092;DHT22;46975;51.898;11.444;2023-02-11T06:50:45;6.20;99.90
61092;DHT22;46975;51.898;11.444;2023-02-11T06:53:10;6.30;99.90
61092;DHT22;46975;51.898;11.444;2023-02-11T06:55:36;6.30;99.90
61092;DHT22;46975;51.898;11.444;2023-02-11T06:58:02;6.30;99.90
61092;DHT22;46975;51.898;11.444;2023-02-11T07:00:27;6.30;99.90
61092;DHT22;46975;51.898;11.444;2023-02-11T07:02:53;6.40;99.90
61092;DHT22;46975;51.898;11.444;2023-02-11T07:05:20;6.40;99.90
61092;DHT22;46975;51.898;11.444;2023-02-11T07:07:45;6.40;99.90
61092;DHT22;46975;51.898;11.444;2023-02-11T07:10:11;6.40;99.90
61092;DHT22;46975;51.898;11.444;2023-02-11T07:12:37;6.40;99.90
61092;DHT22;46975;51.898;11.444;2023-02-11T07:15:04;6.50;99.90
61092;DHT22;46975;51.898;11.444;2023-02-11T07:17:30;6.50;99.90
61092;DHT22;46975;51.898;11.444;2023-02-11T07:19:55;6.40;99.90
61092;DHT22;46975;51.898;11.444;2023-02-11T07:22:21;6.50;99.90
61092;DHT22;46975;51.898;11.444;2023-02-11T07:24:46;6.50;99.90
61092;DHT22;46975;51.898;11.444;2023-02-11T07:27:12;6.50;99.90
61092;DHT22;46975;51.898;11.444;2023-02-11T07:29:38;6.60;99.90
61092;DHT22;46975;51.898;11.444;2023-02-11T07:32:04;6.70;99.90
61092;DHT22;46975;51.898;11.444;2023-02-11T07:34:30;6.70;99.90
61092;DHT22;46975;51.898;11.444;2023-02-11T07:36:56;6.70;99.90
61092;DHT22;46975;51.898;11.444;2023-02-11T07:39:21;6.80;99.90
61092;DHT22;46975;51.898;11.444;2023-02-11T07:41:47;6.80;99.90
61092;DHT22;46975;51.898;11.444;2023-02-11T07:44:13;6.80;99.90
61092;DHT22;46975;51.898;11.444;2023-02-11T07:46:39;6.80;99.90
61092;DHT22;46975;51.898;11.444;2023-02-11T07:49:09;6.80;99.90
61092;DHT22;46975;51.898;11.444;2023-02-11T07:51:35;6.90;99.90
61092;DHT22;46975;51.898;11.444;2023-02-11T07:54:01;6.90;99.90
61092;DHT22;46975;51.898;11.444;2023-02-11T07:56:27;6.90;99.90
61092;DHT22;46975;51.898;11.444;2023-02-11T07:58:54;7.00;99.90
61092;DHT22;46975;51.898;11.444;2023-02-11T08:01:23;7.00;99.90
61092;DHT22;46975;51.898;11.444;2023-02-11T08:03:51;7.00;99.90
61092;DHT22;46975;51.898;11.444;2023-02-11T08:06:19;7.10;99.90
61092;DHT22;46975;51.898;11.444;2023-02-11T08:08:45;7.10;99.90
61092;DHT22;46975;51.898;11.444;2023-02-11T08:13:39;7.20;99.90
61092;DHT22;46975;51.898;11.444;2023-02-11T08:16:06;7.20;99.90
61092;DHT22;46975;51.898;11.444;2023-02-11T08:18:32;7.20;99.90
61092;DHT22;46975;51.898;11.444;2023-02-11T08:21:06;7.30;99.90
61092;DHT22;46975;51.898;11.444;2023-02-11T08:23:33;7.30;99.90
61092;DHT22;46975;51.898;11.444;2023-02-11T08:26:04;7.30;99.90
61092;DHT22;46975;51.898;11.444;2023-02-11T08:28:30;7.30;99.90
61092;DHT22;46975;51.898;11.444;2023-02-11T08:30:56;7.30;99.90
61092;DHT22;46975;51.898;11.444;2023-02-11T08:33:22;7.30;99.90
61092;DHT22;46975;51.898;11.444;2023-02-11T08:35:47;7.20;99.90
61092;DHT22;46975;51.898;11.444;2023-02-11T08:38:13;7.20;99.90
61092;DHT22;46975;51.898;11.444;2023-02-11T08:40:38;7.20;99.90
61092;DHT22;46975;51.898;11.444;2023-02-11T08:43:04;7.20;99.90
61092;DHT22;46975;51.898;11.444;2023-02-11T08:45:29;7.30;99.90
61092;DHT22;46975;51.898;11.444;2023-02-11T08:47:55;7.30;99.90
61092;DHT22;46975;51.898;11.444;2023-02-11T08:50:24;7.30;99.90
61092;DHT22;46975;51.898;11.444;2023-02-11T08:52:53;7.30;99.90
61092;DHT22;46975;51.898;11.444;2023-02-11T08:55:19;7.30;99.90
61092;DHT22;46975;51.898;11.444;2023-02-11T08:57:44;7.30;99.90
61092;DHT22;46975;51.898;11.444;2023-02-11T09:00:10;7.30;99.90
61092;DHT22;46975;51.898;11.444;2023-02-11T09:02:36;7.40;99.90
61092;DHT22;46975;51.898;11.444;2023-02-11T09:05:02;7.40;99.90
61092;DHT22;46975;51.898;11.444;2023-02-11T09:07:27;7.40;99.90
61092;DHT22;46975;51.898;11.444;2023-02-11T09:09:53;7.40;99.90
61092;DHT22;46975;51.898;11.444;2023-02-11T09:12:19;7.50;99.90
61092;DHT22;46975;51.898;11.444;2023-02-11T09:14:44;7.60;99.90
61092;DHT22;46975;51.898;11.444;2023-02-11T09:17:10;7.60;99.90
61092;DHT22;46975;51.898;11.444;2023-02-11T09:19:36;7.70;99.90
61092;DHT22;46975;51.898;11.444;2023-02-11T09:22:01;7.70;99.90
61092;DHT22;46975;51.898;11.444;2023-02-11T09:24:27;7.80;99.90
61092;DHT22;46975;51.898;11.444;2023-02-11T09:26:52;7.80;99.90
61092;DHT22;46975;51.898;11.444;2023-02-11T09:29:18;7.90;99.90
61092;DHT22;46975;51.898;11.444;2023-02-11T09:31:44;7.90;99.90
61092;DHT22;46975;51.898;11.444;2023-02-11T09:34:10;7.90;99.90
61092;DHT22;46975;51.898;11.444;2023-02-11T09:36:38;7.90;99.90
61092;DHT22;46975;51.898;11.444;2023-02-11T09:39:07;7.90;99.90
61092;DHT22;46975;51.898;11.444;2023-02-11T09:44:26;8.10;99.90
61092;DHT22;46975;51.898;11.444;2023-02-11T09:46:56;8.10;99.90
61092;DHT22;46975;51.898;11.444;2023-02-11T09:52:38;8.20;99.90
61092;DHT22;46975;51.898;11.444;2023-02-11T09:55:16;8.10;99.90
61092;DHT22;46975;51.898;11.444;2023-02-11T09:57:43;8.10;99.90
61092;DHT22;46975;51.898;11.444;2023-02-11T10:00:21;8.20;99.90
61092;DHT22;46975;51.898;11.444;2023-02-11T10:08:23;8.40;99.90
61092;DHT22;46975;51.898;11.444;2023-02-11T10:10:53;8.40;99.90
61092;DHT22;46975;51.898;11.444;2023-02-11T10:22:06;8.30;99.90
61092;DHT22;46975;51.898;11.444;2023-02-11T10:24:34;8.40;99.90
61092;DHT22;46975;51.898;11.444;2023-02-11T10:27:15;8.40;99.90
61092;DHT22;46975;51.898;11.444;2023-02-11T10:35:20;8.50;99.90
61092;DHT22;46975;51.898;11.444;2023-02-11T10:37:46;8.40;99.90
61092;DHT22;46975;51.898;11.444;2023-02-11T10:40:26;8.40;99.90
61092;DHT22;46975;51.898;11.444;2023-02-11T10:42:54;8.40;99.90
61092;DHT22;46975;51.898;11.444;2023-02-11T10:47:52;8.40;99.90
61092;DHT22;46975;51.898;11.444;2023-02-11T10:50:25;8.50;99.90
61092;DHT22;46975;51.898;11.444;2023-02-11T10:52:51;8.50;99.90
61092;DHT22;46975;51.898;11.444;2023-02-11T10:55:19;8.50;99.90
61092;DHT22;46975;51.898;11.444;2023-02-11T10:58:00;8.50;99.90
61092;DHT22;46975;51.898;11.444;2023-02-11T11:00:42;8.50;99.90
61092;DHT22;46975;51.898;11.444;2023-02-11T11:03:25;8.60;99.90
61092;DHT22;46975;51.898;11.444;2023-02-11T11:05:57;8.60;99.90
61092;DHT22;46975;51.898;11.444;2023-02-11T11:11:04;8.80;99.90
61092;DHT22;46975;51.898;11.444;2023-02-11T11:13:33;8.90;99.90
61092;DHT22;46975;51.898;11.444;2023-02-11T11:18:37;8.90;99.90
61092;DHT22;46975;51.898;11.444;2023-02-11T11:23:37;8.90;99.90
61092;DHT22;46975;51.898;11.444;2023-02-11T11:26:14;8.90;99.90
61092;DHT22;46975;51.898;11.444;2023-02-11T11:31:13;8.80;99.90
61092;DHT22;46975;51.898;11.444;2023-02-11T11:33:40;8.80;99.90
61092;DHT22;46975;51.898;11.444;2023-02-11T11:36:09;8.80;99.90
61092;DHT22;46975;51.898;11.444;2023-02-11T11:38:43;8.90;99.90
61092;DHT22;46975;51.898;11.444;2023-02-11T11:41:28;8.90;99.90
61092;DHT22;46975;51.898;11.444;2023-02-11T11:44:02;9.00;99.90
61092;DHT22;46975;51.898;11.444;2023-02-11T11:46:34;9.10;99.90
61092;DHT22;46975;51.898;11.444;2023-02-11T11:49:16;9.10;99.90
61092;DHT22;46975;51.898;11.444;2023-02-11T11:51:53;9.10;99.90
61092;DHT22;46975;51.898;11.444;2023-02-11T11:54:22;9.20;99.90
61092;DHT22;46975;51.898;11.444;2023-02-11T11:56:57;9.20;99.90
61092;DHT22;46975;51.898;11.444;2023-02-11T11:59:25;9.20;99.90
61092;DHT22;46975;51.898;11.444;2023-02-11T12:04:46;9.20;99.90
61092;DHT22;46975;51.898;11.444;2023-02-11T12:15:30;9.10;99.90
61092;DHT22;46975;51.898;11.444;2023-02-11T12:23:57;9.20;99.90
61092;DHT22;46975;51.898;11.444;2023-02-11T12:32:21;9.10;99.90
61092;DHT22;46975;51.898;11.444;2023-02-11T12:40:52;9.20;99.90
61092;DHT22;46975;51.898;11.444;2023-02-11T12:43:35;9.20;99.90
61092;DHT22;46975;51.898;11.444;2023-02-11T12:48:45;9.00;99.90
61092;DHT22;46975;51.898;11.444;2023-02-11T13:02:20;8.60;99.90
61092;DHT22;46975;51.898;11.444;2023-02-11T13:04:51;8.60;99.90
61092;DHT22;46975;51.898;11.444;2023-02-11T13:07:36;8.60;99.90
61092;DHT22;46975;51.898;11.444;2023-02-11T13:12:44;8.60;99.90
61092;DHT22;46975;51.898;11.444;2023-02-11T13:15:29;8.60;99.90
61092;DHT22;46975;51.898;11.444;2023-02-11T13:24:09;8.70;99.90
61092;DHT22;46975;51.898;11.444;2023-02-11T13:32:11;8.70;99.90
61092;DHT22;46975;51.898;11.444;2023-02-11T13:40:03;8.70;99.90
61092;DHT22;46975;51.898;11.444;2023-02-11T13:42:32;8.60;99.90
61092;DHT22;46975;51.898;11.444;2023-02-11T13:44:58;8.60;99.90
61092;DHT22;46975;51.898;11.444;2023-02-11T13:47:30;8.60;99.90
61092;DHT22;46975;51.898;11.444;2023-02-11T13:49:57;8.60;99.90
61092;DHT22;46975;51.898;11.444;2023-02-11T13:52:30;8.50;99.90
61092;DHT22;46975;51.898;11.444;2023-02-11T13:55:02;8.50;99.90
61092;DHT22;46975;51.898;11.444;2023-02-11T13:57:34;8.50;99.90
61092;DHT22;46975;51.898;11.444;2023-02-11T14:11:43;8.50;99.90
61092;DHT22;46975;51.898;11.444;2023-02-11T14:14:16;8.50;99.90
61092;DHT22;46975;51.898;11.444;2023-02-11T14:19:35;8.60;99.90
61092;DHT22;46975;51.898;11.444;2023-02-11T14:22:02;8.50;99.90
61092;DHT22;46975;51.898;11.444;2023-02-11T14:27:00;8.50;99.90
61092;DHT22;46975;51.898;11.444;2023-02-11T14:30:08;8.50;99.90
61092;DHT22;46975;51.898;11.444;2023-02-11T14:40:47;8.50;99.90
61092;DHT22;46975;51.898;11.444;2023-02-11T14:43:19;8.50;99.90
61092;DHT22;46975;51.898;11.444;2023-02-11T14:45:49;8.50;99.90
61092;DHT22;46975;51.898;11.444;2023-02-11T14:48:17;8.40;99.90
61092;DHT22;46975;51.898;11.444;2023-02-11T14:51:09;8.40;99.90
61092;DHT22;46975;51.898;11.444;2023-02-11T14:53:36;8.40;99.90
61092;DHT22;46975;51.898;11.444;2023-02-11T14:56:02;8.40;99.90
61092;DHT22;46975;51.898;11.444;2023-02-11T14:58:45;8.40;99.90
61092;DHT22;46975;51.898;11.444;2023-02-11T15:01:33;8.30;99.90
61092;DHT22;46975;51.898;11.444;2023-02-11T15:04:02;8.30;99.90
61092;DHT22;46975;51.898;11.444;2023-02-11T15:06:31;8.30;99.90
61092;DHT22;46975;51.898;11.444;2023-02-11T15:09:01;8.40;99.90
61092;DHT22;46975;51.898;11.444;2023-02-11T15:11:31;8.30;99.90
61092;DHT22;46975;51.898;11.444;2023-02-11T15:14:00;8.30;99.90
61092;DHT22;46975;51.898;11.444;2023-02-11T15:16:32;8.30;99.90
61092;DHT22;46975;51.898;11.444;2023-02-11T15:19:03;8.30;99.90
61092;DHT22;46975;51.898;11.444;2023-02-11T15:21:32;8.30;99.90
61092;DHT22;46975;51.898;11.444;2023-02-11T15:24:04;8.20;99.90
61092;DHT22;46975;51.898;11.444;2023-02-11T15:26:31;8.20;99.90
61092;DHT22;46975;51.898;11.444;2023-02-11T15:28:57;8.20;99.90
61092;DHT22;46975;51.898;11.444;2023-02-11T15:31:27;8.20;99.90
61092;DHT22;46975;51.898;11.444;2023-02-11T15:33:53;8.20;99.90
61092;DHT22;46975;51.898;11.444;2023-02-11T15:36:24;8.20;99.90
61092;DHT22;46975;51.898;11.444;2023-02-11T15:39:27;8.20;99.90
61092;DHT22;46975;51.898;11.444;2023-02-11T15:41:54;8.20;99.90
61092;DHT22;46975;51.898;11.444;2023-02-11T15:44:31;8.20;99.90
61092;DHT22;46975;51.898;11.444;2023-02-11T15:46:57;8.20;99.90
61092;DHT22;46975;51.898;11.444;2023-02-11T15:49:23;8.20;99.90
61092;DHT22;46975;51.898;11.444;2023-02-11T15:51:49;8.20;99.90
61092;DHT22;46975;51.898;11.444;2023-02-11T15:54:19;8.20;99.90
61092;DHT22;46975;51.898;11.444;2023-02-11T15:56:48;8.10;99.90
61092;DHT22;46975;51.898;11.444;2023-02-11T15:59:18;8.10;99.90
61092;DHT22;46975;51.898;11.444;2023-02-11T16:01:46;8.10;99.90
61092;DHT22;46975;51.898;11.444;2023-02-11T16:04:21;8.10;99.90
61092;DHT22;46975;51.898;11.444;2023-02-11T16:06:48;8.10;99.90
61092;DHT22;46975;51.898;11.444;2023-02-11T16:17:30;8.10;99.90
61092;DHT22;46975;51.898;11.444;2023-02-11T16:19:56;8.10;99.90
61092;DHT22;46975;51.898;11.444;2023-02-11T16:22:25;8.20;99.90
61092;DHT22;46975;51.898;11.444;2023-02-11T16:24:53;8.10;99.90
61092;DHT22;46975;51.898;11.444;2023-02-11T16:27:26;8.10;99.90
61092;DHT22;46975;51.898;11.444;2023-02-11T16:29:55;8.20;99.90
61092;DHT22;46975;51.898;11.444;2023-02-11T16:32:25;8.10;99.90
61092;DHT22;46975;51.898;11.444;2023-02-11T16:34:53;8.20;99.90
61092;DHT22;46975;51.898;11.444;2023-02-11T16:37:20;8.20;99.90
61092;DHT22;46975;51.898;11.444;2023-02-11T16:39:45;8.10;99.90
61092;DHT22;46975;51.898;11.444;2023-02-11T16:42:12;8.10;99.90
61092;DHT22;46975;51.898;11.444;2023-02-11T16:44:39;8.20;99.90
61092;DHT22;46975;51.898;11.444;2023-02-11T16:47:06;8.10;99.90
61092;DHT22;46975;51.898;11.444;2023-02-11T16:49:36;8.20;99.90
61092;DHT22;46975;51.898;11.444;2023-02-11T16:52:11;8.20;99.90
61092;DHT22;46975;51.898;11.444;2023-02-11T16:54:37;8.10;99.90
61092;DHT22;46975;51.898;11.444;2023-02-11T16:59:40;8.10;99.90
61092;DHT22;46975;51.898;11.444;2023-02-11T17:02:13;8.10;99.90
61092;DHT22;46975;51.898;11.444;2023-02-11T17:04:40;8.10;99.90
61092;DHT22;46975;51.898;11.444;2023-02-11T17:07:06;8.10;99.90
61092;DHT22;46975;51.898;11.444;2023-02-11T17:09:32;8.10;99.90
61092;DHT22;46975;51.898;11.444;2023-02-11T17:11:57;8.10;99.90
61092;DHT22;46975;51.898;11.444;2023-02-11T17:14:23;8.00;99.90
61092;DHT22;46975;51.898;11.444;2023-02-11T17:16:49;8.00;99.90
61092;DHT22;46975;51.898;11.444;2023-02-11T17:19:16;8.10;99.90
61092;DHT22;46975;51.898;11.444;2023-02-11T17:21:44;8.10;99.90
61092;DHT22;46975;51.898;11.444;2023-02-11T17:24:10;8.10;99.90
61092;DHT22;46975;51.898;11.444;2023-02-11T17:26:36;8.10;99.90
61092;DHT22;46975;51.898;11.444;2023-02-11T17:29:05;8.10;99.90
61092;DHT22;46975;51.898;11.444;2023-02-11T17:31:31;8.00;99.90
61092;DHT22;46975;51.898;11.444;2023-02-11T17:33:57;8.10;99.90
61092;DHT22;46975;51.898;11.444;2023-02-11T17:36:22;8.00;99.90
61092;DHT22;46975;51.898;11.444;2023-02-11T17:38:48;8.00;99.90
61092;DHT22;46975;51.898;11.444;2023-02-11T17:41:15;8.10;99.90
61092;DHT22;46975;51.898;11.444;2023-02-11T17:43:41;8.00;99.90
61092;DHT22;46975;51.898;11.444;2023-02-11T17:46:07;8.00;99.90
61092;DHT22;46975;51.898;11.444;2023-02-11T17:48:36;8.00;99.90
61092;DHT22;46975;51.898;11.444;2023-02-11T17:51:02;8.00;99.90
61092;DHT22;46975;51.898;11.444;2023-02-11T17:53:27;8.10;99.90
61092;DHT22;46975;51.898;11.444;2023-02-11T17:55:54;8.10;99.90
61092;DHT22;46975;51.898;11.444;2023-02-11T17:58:20;8.10;99.90
61092;DHT22;46975;51.898;11.444;2023-02-11T18:00:46;8.10;99.90
61092;DHT22;46975;51.898;11.444;2023-02-11T18:03:11;8.00;99.90
61092;DHT22;46975;51.898;11.444;2023-02-11T18:05:37;8.00;99.90
61092;DHT22;46975;51.898;11.444;2023-02-11T18:08:04;8.10;99.90
61092;DHT22;46975;51.898;11.444;2023-02-11T18:10:30;8.00;99.90
61092;DHT22;46975;51.898;11.444;2023-02-11T18:12:58;7.90;99.90
61092;DHT22;46975;51.898;11.444;2023-02-11T18:15:23;7.90;99.90
61092;DHT22;46975;51.898;11.444;2023-02-11T18:17:49;7.90;99.90
61092;DHT22;46975;51.898;11.444;2023-02-11T18:20:15;8.00;99.90
61092;DHT22;46975;51.898;11.444;2023-02-11T18:22:40;7.90;99.90
61092;DHT22;46975;51.898;11.444;2023-02-11T18:25:10;7.90;99.90
61092;DHT22;46975;51.898;11.444;2023-02-11T18:27:38;7.90;99.90
61092;DHT22;46975;51.898;11.444;2023-02-11T18:30:04;7.90;99.90
61092;DHT22;46975;51.898;11.444;2023-02-11T18:32:30;7.90;99.90